sensor_id;sensor_type;location;lat;lon;timestamp;pressure;altitude;pressure_sealevel;temperature;humidity
8717;BME280;4395;48.554;8.820;2023-05-27T00:00:09;96553.31;;;13.98;96.69
8717;BME280;4395;48.554;8.820;2023-05-27T00:02:12;96556.06;;;14.03;96.88
8717;BME280;4395;48.554;8.820;2023-05-27T00:04:15;96554.16;;;14.04;95.40
8717;BME280;4395;48.554;8.820;2023-05-27T00:06:19;96555.63;;;13.84;96.56
8717;BME280;4395;48.554;8.820;2023-05-27T00:08:21;96458.25;;;13.37;95.03
8717;BME280;4395;48.554;8.820;2023-05-27T00:10:24;96557.38;;;14.01;94.97
8717;BME280;4395;48.554;8.820;2023-05-27T00:12:27;96526.16;;;13.83;94.65
8717;BME280;4395;48.554;8.820;2023-05-27T00:14:30;96557.00;;;13.87;95.42
8717;BME280;4395;48.554;8.820;2023-05-27T00:16:34;96554.13;;;13.99;94.18
8717;BME280;4395;48.554;8.820;2023-05-27T00:18:38;96525.78;;;13.69;94.39
8717;BME280;4395;48.554;8.820;2023-05-27T00:20:42;96556.22;;;13.92;94.35
8717;BME280;4395;48.554;8.820;2023-05-27T00:22:45;96552.41;;;13.88;94.34
8717;BME280;4395;48.554;8.820;2023-05-27T00:24:49;96547.00;;;13.88;93.76
8717;BME280;4395;48.554;8.820;2023-05-27T00:26:51;96554.59;;;13.91;93.28
8717;BME280;4395;48.554;8.820;2023-05-27T00:28:54;96552.19;;;13.94;92.92
8717;BME280;4395;48.554;8.820;2023-05-27T00:30:57;96518.16;;;13.61;92.00
8717;BME280;4395;48.554;8.820;2023-05-27T00:33:02;96557.91;;;13.98;92.01
8717;BME280;4395;48.554;8.820;2023-05-27T00:35:06;96583.31;;;13.97;91.80
8717;BME280;4395;48.554;8.820;2023-05-27T00:37:09;96563.31;;;13.98;92.09
8717;BME280;4395;48.554;8.820;2023-05-27T00:39:11;96559.06;;;14.07;91.19
8717;BME280;4395;48.554;8.820;2023-05-27T00:41:15;96559.31;;;14.05;91.27
8717;BME280;4395;48.554;8.820;2023-05-27T00:43:18;96560.81;;;14.23;89.74
8717;BME280;4395;48.554;8.820;2023-05-27T00:45:21;96562.84;;;14.06;89.82
8717;BME280;4395;48.554;8.820;2023-05-27T00:47:26;96562.00;;;13.73;93.26
8717;BME280;4395;48.554;8.820;2023-05-27T00:49:33;96556.09;;;13.76;92.86
8717;BME280;4395;48.554;8.820;2023-05-27T00:51:36;96556.63;;;13.73;92.52
8717;BME280;4395;48.554;8.820;2023-05-27T00:53:40;96549.38;;;13.79;91.69
8717;BME280;4395;48.554;8.820;2023-05-27T00:55:43;96559.91;;;13.80;91.97
8717;BME280;4395;48.554;8.820;2023-05-27T00:57:47;96546.16;;;13.82;91.65
8717;BME280;4395;48.554;8.820;2023-05-27T00:59:51;96524.91;;;13.64;91.38
8717;BME280;4395;48.554;8.820;2023-05-27T01:01:54;96553.78;;;13.90;91.66
8717;BME280;4395;48.554;8.820;2023-05-27T01:03:57;96517.84;;;13.58;90.64
8717;BME280;4395;48.554;8.820;2023-05-27T01:06:08;96542.84;;;13.75;91.85
8717;BME280;4395;48.554;8.820;2023-05-27T01:08:20;96547.53;;;13.84;90.61
8717;BME280;4395;48.554;8.820;2023-05-27T01:10:35;96536.22;;;13.88;90.26
8717;BME280;4395;48.554;8.820;2023-05-27T01:12:43;96545.72;;;13.63;91.18
8717;BME280;4395;48.554;8.820;2023-05-27T01:14:49;96548.38;;;13.58;92.37
8717;BME280;4395;48.554;8.820;2023-05-27T01:16:54;96541.34;;;13.57;91.96
8717;BME280;4395;48.554;8.820;2023-05-27T01:19:00;96542.88;;;13.48;92.33
8717;BME280;4395;48.554;8.820;2023-05-27T01:21:10;96540.69;;;13.45;93.04
8717;BME280;4395;48.554;8.820;2023-05-27T01:23:16;96532.38;;;13.25;94.75
8717;BME280;4395;48.554;8.820;2023-05-27T01:25:19;96528.66;;;13.09;95.30
8717;BME280;4395;48.554;8.820;2023-05-27T01:27:23;96499.16;;;13.24;94.27
8717;BME280;4395;48.554;8.820;2023-05-27T01:29:27;96542.56;;;13.44;94.86
8717;BME280;4395;48.554;8.820;2023-05-27T01:31:37;96487.25;;;12.76;96.89
8717;BME280;4395;48.554;8.820;2023-05-27T01:33:49;96278.75;;;11.35;96.93
8717;BME280;4395;48.554;8.820;2023-05-27T01:36:02;96372.38;;;11.88;98.75
8717;BME280;4395;48.554;8.820;2023-05-27T01:38:09;96514.69;;;12.51;100.00
8717;BME280;4395;48.554;8.820;2023-05-27T01:40:14;96532.84;;;12.78;99.58
8717;BME280;4395;48.554;8.820;2023-05-27T01:42:17;96517.25;;;12.41;100.00
8717;BME280;4395;48.554;8.820;2023-05-27T01:44:22;96521.28;;;12.61;100.00
8717;BME280;4395;48.554;8.820;2023-05-27T01:46:25;96400.78;;;11.96;100.00
8717;BME280;4395;48.554;8.820;2023-05-27T01:48:28;96520.66;;;12.53;100.00
8717;BME280;4395;48.554;8.820;2023-05-27T01:50:32;96511.00;;;12.57;100.00
8717;BME280;4395;48.554;8.820;2023-05-27T01:52:35;96445.84;;;12.22;100.00
8717;BME280;4395;48.554;8.820;2023-05-27T01:54:38;96495.00;;;12.51;100.00
8717;BME280;4395;48.554;8.820;2023-05-27T01:56:44;96511.56;;;12.60;100.00
8717;BME280;4395;48.554;8.820;2023-05-27T01:58:47;96510.69;;;12.76;99.40
8717;BME280;4395;48.554;8.820;2023-05-27T02:00:50;96511.94;;;12.68;99.23
8717;BME280;4395;48.554;8.820;2023-05-27T02:02:53;96485.59;;;12.32;100.00
8717;BME280;4395;48.554;8.820;2023-05-27T02:04:56;96511.63;;;12.65;99.98
8717;BME280;4395;48.554;8.820;2023-05-27T02:06:59;96510.00;;;12.64;99.62
8717;BME280;4395;48.554;8.820;2023-05-27T02:09:02;96510.06;;;12.69;99.27
8717;BME280;4395;48.554;8.820;2023-05-27T02:11:05;96500.66;;;12.71;98.34
8717;BME280;4395;48.554;8.820;2023-05-27T02:13:10;96481.16;;;12.42;99.59
8717;BME280;4395;48.554;8.820;2023-05-27T02:15:13;96504.31;;;12.60;99.41
8717;BME280;4395;48.554;8.820;2023-05-27T02:17:17;96499.41;;;12.57;99.32
8717;BME280;4395;48.554;8.820;2023-05-27T02:19:20;96499.72;;;12.61;99.17
8717;BME280;4395;48.554;8.820;2023-05-27T02:21:24;96499.28;;;12.69;98.66
8717;BME280;4395;48.554;8.820;2023-05-27T02:23:27;96446.47;;;12.29;98.63
8717;BME280;4395;48.554;8.820;2023-05-27T02:25:32;96494.94;;;12.46;99.80
8717;BME280;4395;48.554;8.820;2023-05-27T02:27:35;96503.03;;;12.46;100.00
8717;BME280;4395;48.554;8.820;2023-05-27T02:29:39;96493.94;;;12.30;100.00
8717;BME280;4395;48.554;8.820;2023-05-27T02:31:42;96490.00;;;12.38;100.00
8717;BME280;4395;48.554;8.820;2023-05-27T02:33:45;96488.84;;;12.34;100.00
8717;BME280;4395;48.554;8.820;2023-05-27T02:35:48;96484.50;;;12.11;100.00
8717;BME280;4395;48.554;8.820;2023-05-27T02:37:51;96486.88;;;12.07;100.00
8717;BME280;4395;48.554;8.820;2023-05-27T02:39:55;96428.44;;;11.91;100.00
8717;BME280;4395;48.554;8.820;2023-05-27T02:41:58;96444.00;;;12.06;100.00
8717;BME280;4395;48.554;8.820;2023-05-27T02:44:01;96440.75;;;12.04;100.00
8717;BME280;4395;48.554;8.820;2023-05-27T02:46:06;96491.94;;;12.42;100.00
8717;BME280;4395;48.554;8.820;2023-05-27T02:48:09;96499.47;;;12.40;100.00
8717;BME280;4395;48.554;8.820;2023-05-27T02:50:13;96497.47;;;12.14;100.00
8717;BME280;4395;48.554;8.820;2023-05-27T02:52:16;96506.69;;;12.18;100.00
8717;BME280;4395;48.554;8.820;2023-05-27T02:54:18;96497.72;;;12.12;100.00
8717;BME280;4395;48.554;8.820;2023-05-27T02:56:21;96503.00;;;12.24;100.00
8717;BME280;4395;48.554;8.820;2023-05-27T02:58:27;96498.78;;;12.11;100.00
8717;BME280;4395;48.554;8.820;2023-05-27T03:00:30;96493.50;;;12.00;100.00
8717;BME280;4395;48.554;8.820;2023-05-27T03:02:34;96488.78;;;11.90;100.00
8717;BME280;4395;48.554;8.820;2023-05-27T03:04:37;96496.91;;;12.12;100.00
8717;BME280;4395;48.554;8.820;2023-05-27T03:06:40;96492.94;;;11.98;100.00
8717;BME280;4395;48.554;8.820;2023-05-27T03:08:44;96493.34;;;11.89;100.00
8717;BME280;4395;48.554;8.820;2023-05-27T03:10:47;96492.19;;;11.85;100.00
8717;BME280;4395;48.554;8.820;2023-05-27T03:12:50;96492.03;;;11.92;100.00
8717;BME280;4395;48.554;8.820;2023-05-27T03:14:53;96488.44;;;11.86;100.00
8717;BME280;4395;48.554;8.820;2023-05-27T03:16:56;96484.94;;;11.86;100.00
8717;BME280;4395;48.554;8.820;2023-05-27T03:19:00;96481.56;;;11.62;100.00
8717;BME280;4395;48.554;8.820;2023-05-27T03:21:04;96496.50;;;11.70;100.00
8717;BME280;4395;48.554;8.820;2023-05-27T03:23:07;96471.22;;;11.54;100.00
8717;BME280;4395;48.554;8.820;2023-05-27T03:25:10;96495.63;;;11.81;100.00
8717;BME280;4395;48.554;8.820;2023-05-27T03:27:14;96496.59;;;11.91;100.00
8717;BME280;4395;48.554;8.820;2023-05-27T03:29:19;96497.75;;;11.96;100.00
8717;BME280;4395;48.554;8.820;2023-05-27T03:31:22;96459.78;;;11.64;100.00
8717;BME280;4395;48.554;8.820;2023-05-27T03:33:37;96495.59;;;11.64;100.00
8717;BME280;4395;48.554;8.820;2023-05-27T03:35:42;96493.00;;;11.69;100.00
8717;BME280;4395;48.554;8.820;2023-05-27T03:37:45;96497.88;;;11.72;100.00
8717;BME280;4395;48.554;8.820;2023-05-27T03:39:48;96495.31;;;11.77;100.00
8717;BME280;4395;48.554;8.820;2023-05-27T03:41:51;96492.19;;;11.69;100.00
8717;BME280;4395;48.554;8.820;2023-05-27T03:43:54;96503.75;;;11.69;100.00
8717;BME280;4395;48.554;8.820;2023-05-27T03:45:57;96498.88;;;11.66;100.00
8717;BME280;4395;48.554;8.820;2023-05-27T03:48:00;96341.75;;;10.55;100.00
8717;BME280;4395;48.554;8.820;2023-05-27T03:50:04;96502.44;;;11.55;100.00
8717;BME280;4395;48.554;8.820;2023-05-27T03:52:09;96501.31;;;11.51;100.00
8717;BME280;4395;48.554;8.820;2023-05-27T03:54:12;96498.22;;;11.59;100.00
8717;BME280;4395;48.554;8.820;2023-05-27T03:56:15;96479.91;;;11.27;100.00
8717;BME280;4395;48.554;8.820;2023-05-27T03:58:19;96475.19;;;11.35;100.00
8717;BME280;4395;48.554;8.820;2023-05-27T04:00:22;96504.41;;;11.59;100.00
8717;BME280;4395;48.554;8.820;2023-05-27T04:02:26;96503.41;;;11.49;100.00
8717;BME280;4395;48.554;8.820;2023-05-27T04:04:29;96495.59;;;11.47;100.00
8717;BME280;4395;48.554;8.820;2023-05-27T04:06:32;96497.59;;;11.23;100.00
8717;BME280;4395;48.554;8.820;2023-05-27T04:08:36;96495.91;;;11.34;100.00
8717;BME280;4395;48.554;8.820;2023-05-27T04:10:41;96489.97;;;11.49;100.00
8717;BME280;4395;48.554;8.820;2023-05-27T04:12:43;96492.34;;;11.62;100.00
8717;BME280;4395;48.554;8.820;2023-05-27T04:14:47;96491.50;;;11.45;100.00
8717;BME280;4395;48.554;8.820;2023-05-27T04:16:50;96484.72;;;11.42;100.00
8717;BME280;4395;48.554;8.820;2023-05-27T04:18:53;96491.69;;;11.55;100.00
8717;BME280;4395;48.554;8.820;2023-05-27T04:20:56;96490.28;;;11.69;100.00
8717;BME280;4395;48.554;8.820;2023-05-27T04:23:00;96492.50;;;11.72;100.00
8717;BME280;4395;48.554;8.820;2023-05-27T04:25:06;96500.09;;;11.58;100.00
8717;BME280;4395;48.554;8.820;2023-05-27T04:27:19;96492.34;;;11.62;100.00
8717;BME280;4395;48.554;8.820;2023-05-27T04:29:22;96391.41;;;10.81;100.00
8717;BME280;4395;48.554;8.820;2023-05-27T04:31:26;96391.91;;;10.94;100.00
8717;BME280;4395;48.554;8.820;2023-05-27T04:33:37;96496.81;;;11.73;100.00
8717;BME280;4395;48.554;8.820;2023-05-27T04:35:41;96494.47;;;11.60;100.00
8717;BME280;4395;48.554;8.820;2023-05-27T04:37:46;96497.16;;;11.60;100.00
8717;BME280;4395;48.554;8.820;2023-05-27T04:39:49;96497.81;;;11.67;100.00
8717;BME280;4395;48.554;8.820;2023-05-27T04:41:55;96495.97;;;11.84;100.00
8717;BME280;4395;48.554;8.820;2023-05-27T04:44:05;96500.56;;;11.72;100.00
8717;BME280;4395;48.554;8.820;2023-05-27T04:46:12;96507.72;;;11.78;100.00
8717;BME280;4395;48.554;8.820;2023-05-27T04:48:16;96492.50;;;11.72;100.00
8717;BME280;4395;48.554;8.820;2023-05-27T04:50:19;96497.63;;;11.74;100.00
8717;BME280;4395;48.554;8.820;2023-05-27T04:52:22;96499.22;;;11.86;100.00
8717;BME280;4395;48.554;8.820;2023-05-27T04:54:26;96495.53;;;11.93;100.00
8717;BME280;4395;48.554;8.820;2023-05-27T04:56:30;96497.56;;;12.02;100.00
8717;BME280;4395;48.554;8.820;2023-05-27T04:58:34;96494.47;;;11.94;100.00
8717;BME280;4395;48.554;8.820;2023-05-27T05:00:38;96499.44;;;12.02;100.00
8717;BME280;4395;48.554;8.820;2023-05-27T05:02:52;96492.84;;;11.93;100.00
8717;BME280;4395;48.554;8.820;2023-05-27T05:05:05;96493.88;;;12.08;100.00
8717;BME280;4395;48.554;8.820;2023-05-27T05:07:08;96500.81;;;12.21;100.00
8717;BME280;4395;48.554;8.820;2023-05-27T05:09:14;96504.00;;;12.18;100.00
8717;BME280;4395;48.554;8.820;2023-05-27T05:11:18;96494.94;;;12.24;100.00
8717;BME280;4395;48.554;8.820;2023-05-27T05:13:21;96500.50;;;12.01;100.00
8717;BME280;4395;48.554;8.820;2023-05-27T05:15:26;96500.38;;;12.29;100.00
8717;BME280;4395;48.554;8.820;2023-05-27T05:17:30;96493.84;;;12.64;100.00
8717;BME280;4395;48.554;8.820;2023-05-27T05:19:33;96492.97;;;13.02;100.00
8717;BME280;4395;48.554;8.820;2023-05-27T05:21:36;96492.78;;;13.62;100.00
8717;BME280;4395;48.554;8.820;2023-05-27T05:23:42;96498.59;;;14.18;100.00
8717;BME280;4395;48.554;8.820;2023-05-27T05:25:46;96502.88;;;14.09;100.00
8717;BME280;4395;48.554;8.820;2023-05-27T05:27:56;96517.31;;;14.30;100.00
8717;BME280;4395;48.554;8.820;2023-05-27T05:29:59;96499.38;;;13.76;99.40
8717;BME280;4395;48.554;8.820;2023-05-27T05:32:03;96505.44;;;13.08;100.00
8717;BME280;4395;48.554;8.820;2023-05-27T05:34:06;96506.41;;;13.18;100.00
8717;BME280;4395;48.554;8.820;2023-05-27T05:36:10;96507.34;;;13.93;100.00
8717;BME280;4395;48.554;8.820;2023-05-27T05:38:30;96510.59;;;13.95;99.90
8717;BME280;4395;48.554;8.820;2023-05-27T05:40:33;96507.59;;;14.29;100.00
8717;BME280;4395;48.554;8.820;2023-05-27T05:42:48;96466.59;;;14.42;99.27
8717;BME280;4395;48.554;8.820;2023-05-27T05:44:51;96473.19;;;14.61;95.42
8717;BME280;4395;48.554;8.820;2023-05-27T05:46:54;96506.00;;;14.80;95.90
8717;BME280;4395;48.554;8.820;2023-05-27T05:49:00;96510.78;;;14.21;96.22
8717;BME280;4395;48.554;8.820;2023-05-27T05:51:12;96511.06;;;14.24;97.66
8717;BME280;4395;48.554;8.820;2023-05-27T05:53:18;96481.13;;;13.94;98.25
8717;BME280;4395;48.554;8.820;2023-05-27T05:55:22;96503.13;;;14.07;96.81
8717;BME280;4395;48.554;8.820;2023-05-27T05:57:25;96505.22;;;14.00;97.90
8717;BME280;4395;48.554;8.820;2023-05-27T05:59:28;96501.78;;;14.10;97.67
8717;BME280;4395;48.554;8.820;2023-05-27T06:01:31;96505.63;;;13.82;98.88
8717;BME280;4395;48.554;8.820;2023-05-27T06:03:35;96500.09;;;13.99;98.85
8717;BME280;4395;48.554;8.820;2023-05-27T06:05:42;96513.03;;;13.97;99.36
8717;BME280;4395;48.554;8.820;2023-05-27T06:07:46;96506.59;;;14.03;99.72
8717;BME280;4395;48.554;8.820;2023-05-27T06:09:49;96496.84;;;13.97;99.13
8717;BME280;4395;48.554;8.820;2023-05-27T06:11:57;96512.22;;;14.33;96.55
8717;BME280;4395;48.554;8.820;2023-05-27T06:14:01;96512.34;;;14.48;96.05
8717;BME280;4395;48.554;8.820;2023-05-27T06:16:04;96478.78;;;14.44;94.80
8717;BME280;4395;48.554;8.820;2023-05-27T06:18:07;96511.94;;;14.77;95.03
8717;BME280;4395;48.554;8.820;2023-05-27T06:20:11;96505.38;;;14.63;94.24
8717;BME280;4395;48.554;8.820;2023-05-27T06:22:15;96508.56;;;14.55;94.29
8717;BME280;4395;48.554;8.820;2023-05-27T06:24:48;96504.00;;;14.18;98.02
8717;BME280;4395;48.554;8.820;2023-05-27T06:27:02;96504.63;;;14.30;97.59
8717;BME280;4395;48.554;8.820;2023-05-27T06:29:06;96500.59;;;14.33;96.45
8717;BME280;4395;48.554;8.820;2023-05-27T06:31:09;96505.13;;;14.69;95.41
8717;BME280;4395;48.554;8.820;2023-05-27T06:33:14;96493.03;;;14.87;95.61
8717;BME280;4395;48.554;8.820;2023-05-27T06:35:17;96498.41;;;14.77;96.31
8717;BME280;4395;48.554;8.820;2023-05-27T06:37:22;96497.09;;;14.90;96.53
8717;BME280;4395;48.554;8.820;2023-05-27T06:39:25;96500.69;;;15.10;93.01
8717;BME280;4395;48.554;8.820;2023-05-27T06:41:28;96488.81;;;15.27;92.75
8717;BME280;4395;48.554;8.820;2023-05-27T06:44:08;96504.47;;;15.04;95.41
8717;BME280;4395;48.554;8.820;2023-05-27T06:46:21;96500.66;;;15.00;93.76
8717;BME280;4395;48.554;8.820;2023-05-27T06:48:39;96489.38;;;15.29;91.13
8717;BME280;4395;48.554;8.820;2023-05-27T06:50:42;96491.53;;;15.27;90.28
8717;BME280;4395;48.554;8.820;2023-05-27T06:52:47;96484.47;;;15.26;90.92
8717;BME280;4395;48.554;8.820;2023-05-27T06:55:18;96444.66;;;15.06;90.40
8717;BME280;4395;48.554;8.820;2023-05-27T06:57:47;96491.53;;;15.32;91.25
8717;BME280;4395;48.554;8.820;2023-05-27T06:59:56;96499.16;;;15.45;89.68
8717;BME280;4395;48.554;8.820;2023-05-27T07:02:00;96502.91;;;15.34;92.33
8717;BME280;4395;48.554;8.820;2023-05-27T07:04:03;96498.16;;;15.71;90.49
8717;BME280;4395;48.554;8.820;2023-05-27T07:06:17;96498.69;;;15.84;90.23
8717;BME280;4395;48.554;8.820;2023-05-27T07:08:25;96496.41;;;15.25;93.59
8717;BME280;4395;48.554;8.820;2023-05-27T07:10:57;96496.97;;;15.42;92.74
8717;BME280;4395;48.554;8.820;2023-05-27T07:13:00;96497.34;;;15.71;91.32
8717;BME280;4395;48.554;8.820;2023-05-27T07:15:14;96465.56;;;15.56;91.20
8717;BME280;4395;48.554;8.820;2023-05-27T07:17:18;96496.53;;;15.81;91.98
8717;BME280;4395;48.554;8.820;2023-05-27T07:19:22;96502.94;;;15.39;92.67
8717;BME280;4395;48.554;8.820;2023-05-27T07:21:30;96509.44;;;15.48;92.55
8717;BME280;4395;48.554;8.820;2023-05-27T07:23:35;96503.84;;;16.00;91.04
8717;BME280;4395;48.554;8.820;2023-05-27T07:25:56;96505.47;;;16.12;87.88
8717;BME280;4395;48.554;8.820;2023-05-27T07:28:00;96498.97;;;16.02;89.98
8717;BME280;4395;48.554;8.820;2023-05-27T07:30:04;96436.88;;;16.01;88.03
8717;BME280;4395;48.554;8.820;2023-05-27T07:32:24;96496.41;;;16.67;86.53
8717;BME280;4395;48.554;8.820;2023-05-27T07:34:28;96437.00;;;16.55;84.23
8717;BME280;4395;48.554;8.820;2023-05-27T07:36:31;96504.47;;;16.92;84.83
8717;BME280;4395;48.554;8.820;2023-05-27T07:38:36;96497.19;;;16.78;86.20
8717;BME280;4395;48.554;8.820;2023-05-27T07:40:39;96492.53;;;16.88;87.09
8717;BME280;4395;48.554;8.820;2023-05-27T07:42:41;96440.16;;;16.88;83.99
8717;BME280;4395;48.554;8.820;2023-05-27T07:44:45;96490.78;;;17.18;83.88
8717;BME280;4395;48.554;8.820;2023-05-27T07:46:48;96484.91;;;16.95;85.42
8717;BME280;4395;48.554;8.820;2023-05-27T07:48:51;96487.56;;;17.06;86.98
8717;BME280;4395;48.554;8.820;2023-05-27T07:50:54;96357.78;;;16.53;85.06
8717;BME280;4395;48.554;8.820;2023-05-27T07:52:58;96487.84;;;17.53;83.49
8717;BME280;4395;48.554;8.820;2023-05-27T07:55:05;96485.41;;;17.52;83.25
8717;BME280;4395;48.554;8.820;2023-05-27T07:57:08;96479.63;;;17.68;81.66
8717;BME280;4395;48.554;8.820;2023-05-27T07:59:11;96481.13;;;17.85;81.10
8717;BME280;4395;48.554;8.820;2023-05-27T08:01:14;96388.91;;;17.54;79.01
8717;BME280;4395;48.554;8.820;2023-05-27T08:03:23;96476.41;;;17.95;80.72
8717;BME280;4395;48.554;8.820;2023-05-27T08:05:52;96476.59;;;18.04;81.78
8717;BME280;4395;48.554;8.820;2023-05-27T08:08:09;96467.53;;;17.85;82.53
8717;BME280;4395;48.554;8.820;2023-05-27T08:10:43;96475.06;;;18.27;80.45
8717;BME280;4395;48.554;8.820;2023-05-27T08:13:14;96477.56;;;18.18;79.03
8717;BME280;4395;48.554;8.820;2023-05-27T08:15:31;96470.69;;;18.55;76.24
8717;BME280;4395;48.554;8.820;2023-05-27T08:17:39;96471.63;;;18.11;81.12
8717;BME280;4395;48.554;8.820;2023-05-27T08:19:56;96453.88;;;17.90;80.25
8717;BME280;4395;48.554;8.820;2023-05-27T08:22:22;96468.63;;;18.71;75.84
8717;BME280;4395;48.554;8.820;2023-05-27T08:24:44;96462.66;;;19.11;75.07
8717;BME280;4395;48.554;8.820;2023-05-27T08:27:15;96460.53;;;19.46;71.77
8717;BME280;4395;48.554;8.820;2023-05-27T08:29:44;96458.00;;;19.54;69.31
8717;BME280;4395;48.554;8.820;2023-05-27T08:32:08;96453.50;;;19.64;70.28
8717;BME280;4395;48.554;8.820;2023-05-27T08:34:11;96457.47;;;19.71;69.12
8717;BME280;4395;48.554;8.820;2023-05-27T08:36:14;96443.28;;;19.88;67.06
8717;BME280;4395;48.554;8.820;2023-05-27T08:38:20;96380.59;;;19.69;66.46
8717;BME280;4395;48.554;8.820;2023-05-27T08:40:27;96446.09;;;19.83;69.16
8717;BME280;4395;48.554;8.820;2023-05-27T08:42:32;96444.50;;;19.96;68.92
8717;BME280;4395;48.554;8.820;2023-05-27T08:44:36;96439.72;;;19.55;70.46
8717;BME280;4395;48.554;8.820;2023-05-27T08:46:40;96440.16;;;19.95;69.33
8717;BME280;4395;48.554;8.820;2023-05-27T08:48:44;96436.38;;;20.09;66.15
8717;BME280;4395;48.554;8.820;2023-05-27T08:50:47;96440.63;;;20.15;65.85
8717;BME280;4395;48.554;8.820;2023-05-27T08:52:52;96433.78;;;19.85;68.56
8717;BME280;4395;48.554;8.820;2023-05-27T08:54:57;96442.94;;;20.08;68.23
8717;BME280;4395;48.554;8.820;2023-05-27T08:57:03;96436.06;;;20.11;67.97
8717;BME280;4395;48.554;8.820;2023-05-27T08:59:11;96376.25;;;20.28;65.27
8717;BME280;4395;48.554;8.820;2023-05-27T09:01:16;96401.56;;;20.61;63.23
8717;BME280;4395;48.554;8.820;2023-05-27T09:03:20;96434.34;;;21.02;62.05
8717;BME280;4395;48.554;8.820;2023-05-27T09:05:26;96440.28;;;21.18;62.85
8717;BME280;4395;48.554;8.820;2023-05-27T09:07:29;96397.06;;;21.20;61.85
8717;BME280;4395;48.554;8.820;2023-05-27T09:09:32;96434.31;;;21.16;62.23
8717;BME280;4395;48.554;8.820;2023-05-27T09:11:38;96427.72;;;21.31;61.04
8717;BME280;4395;48.554;8.820;2023-05-27T09:13:42;96434.81;;;21.18;62.72
8717;BME280;4395;48.554;8.820;2023-05-27T09:15:46;96428.56;;;21.54;61.92
8717;BME280;4395;48.554;8.820;2023-05-27T09:17:49;96431.94;;;21.73;62.03
8717;BME280;4395;48.554;8.820;2023-05-27T09:19:53;96429.38;;;21.99;59.59
8717;BME280;4395;48.554;8.820;2023-05-27T09:21:56;96432.56;;;22.14;58.38
8717;BME280;4395;48.554;8.820;2023-05-27T09:23:59;96426.31;;;22.00;58.03
8717;BME280;4395;48.554;8.820;2023-05-27T09:26:07;96425.50;;;22.22;57.02
8717;BME280;4395;48.554;8.820;2023-05-27T09:28:10;96429.06;;;22.23;56.05
8717;BME280;4395;48.554;8.820;2023-05-27T09:30:14;96416.41;;;21.10;60.40
8717;BME280;4395;48.554;8.820;2023-05-27T09:32:25;96383.56;;;21.37;61.31
8717;BME280;4395;48.554;8.820;2023-05-27T09:34:28;96421.47;;;22.20;58.59
8717;BME280;4395;48.554;8.820;2023-05-27T09:36:32;96462.91;;;22.27;56.40
8717;BME280;4395;48.554;8.820;2023-05-27T09:38:35;96317.00;;;21.95;55.16
8717;BME280;4395;48.554;8.820;2023-05-27T09:40:38;96418.19;;;22.40;55.41
8717;BME280;4395;48.554;8.820;2023-05-27T09:42:43;96369.88;;;22.04;54.50
8717;BME280;4395;48.554;8.820;2023-05-27T09:44:46;96419.19;;;21.68;57.23
8717;BME280;4395;48.554;8.820;2023-05-27T09:46:51;96418.38;;;22.12;57.95
8717;BME280;4395;48.554;8.820;2023-05-27T09:48:58;96421.19;;;22.30;58.82
8717;BME280;4395;48.554;8.820;2023-05-27T09:51:01;96425.66;;;22.57;57.91
8717;BME280;4395;48.554;8.820;2023-05-27T09:53:06;96416.63;;;22.96;54.18
8717;BME280;4395;48.554;8.820;2023-05-27T09:55:14;96411.50;;;23.03;52.61
8717;BME280;4395;48.554;8.820;2023-05-27T09:57:18;96417.16;;;23.15;52.53
8717;BME280;4395;48.554;8.820;2023-05-27T09:59:22;96397.44;;;22.87;54.57
8717;BME280;4395;48.554;8.820;2023-05-27T10:01:26;96406.13;;;22.81;54.07
8717;BME280;4395;48.554;8.820;2023-05-27T10:03:30;96403.94;;;23.17;53.69
8717;BME280;4395;48.554;8.820;2023-05-27T10:05:35;96405.31;;;23.54;51.02
8717;BME280;4395;48.554;8.820;2023-05-27T10:07:40;96407.88;;;23.85;49.94
8717;BME280;4395;48.554;8.820;2023-05-27T10:10:05;96401.19;;;24.12;47.88
8717;BME280;4395;48.554;8.820;2023-05-27T10:12:08;96406.31;;;24.22;48.11
8717;BME280;4395;48.554;8.820;2023-05-27T10:14:11;96399.88;;;24.27;47.08
8717;BME280;4395;48.554;8.820;2023-05-27T10:16:19;96389.34;;;23.56;50.68
8717;BME280;4395;48.554;8.820;2023-05-27T10:18:23;96394.25;;;24.06;49.86
8717;BME280;4395;48.554;8.820;2023-05-27T10:20:27;96391.78;;;24.39;47.77
8717;BME280;4395;48.554;8.820;2023-05-27T10:22:42;96394.44;;;24.56;45.97
8717;BME280;4395;48.554;8.820;2023-05-27T10:24:46;96259.63;;;23.94;45.28
8717;BME280;4395;48.554;8.820;2023-05-27T10:26:59;96386.69;;;24.88;46.08
8717;BME280;4395;48.554;8.820;2023-05-27T10:29:07;96392.03;;;24.55;43.58
8717;BME280;4395;48.554;8.820;2023-05-27T10:31:13;96371.81;;;24.59;43.69
8717;BME280;4395;48.554;8.820;2023-05-27T10:33:17;96377.28;;;24.59;44.57
8717;BME280;4395;48.554;8.820;2023-05-27T10:35:38;96382.56;;;24.35;45.87
8717;BME280;4395;48.554;8.820;2023-05-27T10:37:43;96371.63;;;24.64;46.36
8717;BME280;4395;48.554;8.820;2023-05-27T10:39:53;96351.06;;;24.71;43.84
8717;BME280;4395;48.554;8.820;2023-05-27T10:41:56;96377.16;;;24.85;43.61
8717;BME280;4395;48.554;8.820;2023-05-27T10:43:59;96371.94;;;24.63;46.34
8717;BME280;4395;48.554;8.820;2023-05-27T10:46:04;96370.78;;;25.02;44.20
8717;BME280;4395;48.554;8.820;2023-05-27T10:48:15;96376.31;;;24.93;44.78
8717;BME280;4395;48.554;8.820;2023-05-27T10:50:18;96373.63;;;25.35;42.42
8717;BME280;4395;48.554;8.820;2023-05-27T10:52:24;96374.88;;;25.17;43.11
8717;BME280;4395;48.554;8.820;2023-05-27T10:54:30;96373.75;;;25.39;43.44
8717;BME280;4395;48.554;8.820;2023-05-27T10:56:36;96372.47;;;25.78;41.49
8717;BME280;4395;48.554;8.820;2023-05-27T10:58:38;96366.28;;;25.81;41.15
8717;BME280;4395;48.554;8.820;2023-05-27T11:00:42;96365.47;;;25.80;40.73
8717;BME280;4395;48.554;8.820;2023-05-27T11:02:47;96328.78;;;25.55;40.40
8717;BME280;4395;48.554;8.820;2023-05-27T11:04:50;96379.44;;;25.75;40.27
8717;BME280;4395;48.554;8.820;2023-05-27T11:06:57;96369.59;;;26.07;40.12
8717;BME280;4395;48.554;8.820;2023-05-27T11:09:04;96321.94;;;25.94;40.10
8717;BME280;4395;48.554;8.820;2023-05-27T11:11:11;96352.25;;;26.40;39.41
8717;BME280;4395;48.554;8.820;2023-05-27T11:13:15;96365.69;;;26.78;38.72
8717;BME280;4395;48.554;8.820;2023-05-27T11:15:18;96346.97;;;26.59;38.18
8717;BME280;4395;48.554;8.820;2023-05-27T11:17:22;96374.28;;;26.52;38.31
8717;BME280;4395;48.554;8.820;2023-05-27T11:19:25;96354.22;;;25.73;40.22
8717;BME280;4395;48.554;8.820;2023-05-27T11:21:28;96349.25;;;26.00;39.94